Nules, Spain
Current Conditions -  °F | °C
As of 10:00 AM on Saturday 25 Oct 2014 (Local Time) from LEBT Reporting Station
Clear Clear  
Wind Chill: 18°   Ceiling: Unl
Heat Index: 18°   Visibility: 6mi
Dew Point:   Wind: 0mph
Humidity: 49%   Direction: NA
Pressure: 30.12"   Gusts: NA
Location:  39.85°N, 0.16°W
Report Text: LEBT 250800Z AUTO 00000KT CAVOK 18/07 Q1020
Loading
Personal Weather Stations






























Interactive Weather Map
Tropical Storm Tracking
New forecast layout! Learn more

10-Day Weather Forecast

Advertisements
Track Severe Weather on mobile